Language selection

My Weather Profile Weather Topics  | 

Central Brevoort - southern half: Past 24 Hour Conditions

 

Hopedale

07:00 PM AST 05 February 2023
Disclaimer

This table is a summary of hourly weather conditions for the past 24 hours.
Please note that these observations might not always be representative of weather conditions over their associated marine area.

Date / Time
(AST)
Wind(knots) Conditions Visibility(km) Pressure(kPa) Air tempC) Relative humidity(%) Dew pointC)
05 February 2023
19:00 N/A N/A N/A 100.9 -22 60 -28
18:00 N/A N/A N/A 100.8 -22 59 -27
17:00 N/A N/A N/A 100.7 -23 69 -27
16:00 N/A N/A N/A 100.7 -22 67 -26
15:00 N/A N/A N/A 100.6 -22 66 -27
14:00 N/A N/A N/A 100.6 -23 65 -28
13:00 N/A N/A N/A 100.6 -25 67 -29
12:00 N/A N/A N/A 100.7 -26 64 -30
11:00 N/A N/A N/A 100.8 -26 64 -31
10:00 N/A N/A N/A 100.8 -28 63 -32
9:00 N/A N/A N/A 100.8 -26 57 -32
8:00 N/A N/A N/A 100.8 -27 58 -33
7:00 N/A N/A N/A 100.8 -27 58 -33
6:00 N/A N/A N/A 100.7 -27 54 -33
5:00 N/A N/A N/A 100.6 -26 55 -32
4:00 N/A N/A N/A 100.5 -25 56 -31
3:00 N/A N/A N/A 100.4 -23 54 -30
2:00 N/A N/A N/A 100.2 -22 59 -28
1:00 N/A N/A N/A 100.0 -22 67 -27
0:00 N/A N/A N/A 99.9 -18 64 -24
04 February 2023
23:00 N/A N/A N/A 99.7 -18 67 -22
22:00 N/A N/A N/A 99.5 -17 72 -21
21:00 N/A N/A N/A 99.3 -17 75 -20
20:00 N/A N/A N/A 99.1 -15 80 -17
19:00 N/A N/A N/A 98.8 -14 82 -17

Zoom-in to make a selection

Map of Atlantic - Labrador marine weather areas Kangiqsualujjuaq Airport Cape Kakkiviak Cape Kiglapait Cartwright Airport CFB Goose Bay Hopedale Mary's Harbour Nain Airport Makkovik Airport Saglek Tukialik Bay
Legend:
buoy Buoy
land station Land Station

Atlantic - Labrador Area

Another Region

What we are doing

Date modified: